CheckWX is a tool to help pilots better visualize weather data.  It is not intended as a substitute for an official pre-flight weather briefing.

10:52:48 UTC

EGSH TAF
Norwich International Airport
Norwich, United Kingdom
TAF EGSH 040158Z 0403/0412 19005KT 9999 FEW040

Apr-4@
03:00 UTC

Apr-4 @ 03:00 UTC

Apr-4@
12:00 UTC

Apr-4 @ 12:00 UTC

TAF EGSH 040158Z 0403/0412 19005KT 9999 FEW040
Wind
  • 190° at 5 KTS
Cloud Levels
  • Few at 4,000' AGL